Time;durP1;ratioP1;P1;durP2;ratioP2;P2;SDS_P1;SDS_P2;PMS_P1;PMS_P2;Temp;Humidity;BMP_temperature;BMP_pressure;BME280_temperature;BME280_humidity;BME280_pressure;Samples;Min_cycle;Max_cycle;Signal;HPM_P1;HPM_P2
2020/12/25 00:02:37;;;;;;;11.1;7.3;;;;;;;3.75;82.48047;97825.84;;;;
2020/12/25 00:12:36;;;;;;;10.3;6;;;;;;;3.58;83.66699;97838.79;;;;
2020/12/25 00:22:34;;;;;;;8.5;5.2;;;;;;;3.29;84.48438;97867.28;;;;
2020/12/25 00:32:32;;;;;;;9.1;5.9;;;;;;;3.21;84.0459;97867.87;;;;
2020/12/25 00:42:30;;;;;;;10.9;6.8;;;;;;;3.02;84.32129;97884.48;;;;
2020/12/25 00:52:28;;;;;;;12.9;6.4;;;;;;;3;84.01855;97891.96;;;;
2020/12/25 01:02:28;;;;;;;6.9;4.8;;;;;;;2.93;83.46484;97899.45;;;;
2020/12/25 01:12:25;;;;;;;7.7;4.8;;;;;;;2.92;82.94141;97911.16;;;;
2020/12/25 01:22:23;;;;;;;8.1;6;;;;;;;2.91;82.57422;97919.44;;;;
2020/12/25 01:32:21;;;;;;;8.3;4.5;;;;;;;3.02;82.24121;97918.28;;;;
2020/12/25 01:42:19;;;;;;;10.6;6.6;;;;;;;2.93;82.47852;97927.92;;;;
2020/12/25 01:52:17;;;;;;;8.8;6.6;;;;;;;3.04;82.46582;97918.83;;;;
2020/12/25 02:02:16;;;;;;;12.3;8.9;;;;;;;2.76;83.96094;97936.26;;;;
2020/12/25 02:12:13;;;;;;;12.3;8.5;;;;;;;2.77;84.26074;97945.84;;;;
2020/12/25 02:22:11;;;;;;;11.2;8.1;;;;;;;3.07;83.23438;97958.2;;;;
2020/12/25 02:32:09;;;;;;;10;6.7;;;;;;;2.93;84.29395;97963.33;;;;
2020/12/25 02:42:07;;;;;;;13.3;8.7;;;;;;;2.85;85.54785;97961.22;;;;
2020/12/25 02:52:05;;;;;;;13.1;10.2;;;;;;;2.71;86.41406;97970.86;;;;
2020/12/25 03:02:03;;;;;;;12.3;7.7;;;;;;;2.72;86.52832;97972.45;;;;
2020/12/25 03:12:01;;;;;;;9.1;6.1;;;;;;;2.6;86.45898;97956.02;;;;
2020/12/25 03:21:59;;;;;;;11;7;;;;;;;2.77;85.94043;97988.41;;;;
2020/12/25 03:31:57;;;;;;;12.9;10.3;;;;;;;2.74;86.12109;97996.14;;;;
2020/12/25 03:41:55;;;;;;;10.9;8.2;;;;;;;2.76;87.1543;98002.78;;;;
2020/12/25 03:51:53;;;;;;;10.8;8.6;;;;;;;2.71;86.9668;98018.74;;;;
2020/12/25 04:01:51;;;;;;;10.2;6.7;;;;;;;2.8;86.50977;98024.31;;;;
2020/12/25 04:11:50;;;;;;;8.4;6.4;;;;;;;2.92;84.96387;98038.1;;;;
2020/12/25 04:21:48;;;;;;;7.1;4.6;;;;;;;2.78;84.2627;98053.05;;;;
2020/12/25 04:31:46;;;;;;;8.1;6;;;;;;;2.78;84.22949;98069.81;;;;
2020/12/25 04:41:44;;;;;;;9.4;7.7;;;;;;;2.98;83.72754;98077.77;;;;
2020/12/25 04:51:42;;;;;;;8;6.5;;;;;;;2.93;84.05078;98080.43;;;;
2020/12/25 05:01:40;;;;;;;6.5;4.4;;;;;;;2.91;83.22656;98076.45;;;;
2020/12/25 05:11:38;;;;;;;8.4;6.3;;;;;;;2.92;83.49414;98086.81;;;;
2020/12/25 05:21:40;;;;;;;9.2;6.9;;;;;;;2.86;83.9248;98103.06;;;;
2020/12/25 05:31:35;;;;;;;10.9;7.8;;;;;;;2.71;84.82324;98106.54;;;;
2020/12/25 05:41:34;;;;;;;10.2;6.5;;;;;;;2.74;84.49707;98115.88;;;;
2020/12/25 05:51:31;;;;;;;9.9;7.5;;;;;;;2.71;83.9834;98130.48;;;;
2020/12/25 06:01:34;;;;;;;12.6;8;;;;;;;2.75;83.71582;98147.52;;;;
2020/12/25 06:11:27;;;;;;;11.4;8.3;;;;;;;2.91;83.31543;98177.59;;;;
2020/12/25 06:21:25;;;;;;;7.7;6;;;;;;;2.93;82.32324;98175.44;;;;
2020/12/25 06:31:23;;;;;;;9.4;6.6;;;;;;;2.91;82.12109;98185.57;;;;
2020/12/25 06:41:22;;;;;;;7.8;4.8;;;;;;;2.91;81.46777;98197.02;;;;
2020/12/25 06:51:20;;;;;;;13;7.9;;;;;;;3;81.97168;98203.39;;;;
2020/12/25 07:01:18;;;;;;;13.9;8.2;;;;;;;3.05;81.84961;98206.03;;;;
2020/12/25 07:11:16;;;;;;;8.9;7.1;;;;;;;3.01;81.70898;98223.63;;;;
2020/12/25 07:21:14;;;;;;;14.6;8.2;;;;;;;3.03;80.99316;98245.44;;;;
2020/12/25 07:31:12;;;;;;;11.5;8.4;;;;;;;3;80.86426;98253.96;;;;
2020/12/25 07:41:10;;;;;;;11.8;8.9;;;;;;;2.97;81.04785;98259.83;;;;
2020/12/25 07:51:08;;;;;;;15.3;9.4;;;;;;;3.02;80.45801;98257.14;;;;
2020/12/25 08:01:06;;;;;;;11.6;7;;;;;;;2.69;82.25488;98276.3;;;;
2020/12/25 08:11:05;;;;;;;10.4;8.5;;;;;;;2.8;82.3877;98288.56;;;;
2020/12/25 08:21:03;;;;;;;10.5;6.4;;;;;;;2.86;82.01074;98292.81;;;;
2020/12/25 08:31:01;;;;;;;15.6;9.6;;;;;;;2.79;82.46191;98320.73;;;;
2020/12/25 08:40:59;;;;;;;12.3;9.7;;;;;;;2.71;82.75586;98319.39;;;;
2020/12/25 08:50:57;;;;;;;13.5;6.4;;;;;;;2.89;81.77246;98331.4;;;;
2020/12/25 09:00:55;;;;;;;9.6;6.1;;;;;;;2.87;81.96875;98342.33;;;;
2020/12/25 09:10:53;;;;;;;17;10.7;;;;;;;3.04;81.61523;98342.88;;;;
2020/12/25 09:20:51;;;;;;;11.3;9.7;;;;;;;3.1;80.32813;98348.2;;;;
2020/12/25 09:30:49;;;;;;;9.3;5.7;;;;;;;3.19;79.91211;98341.3;;;;
2020/12/25 09:40:47;;;;;;;12.2;7.8;;;;;;;3.07;81.03125;98341.55;;;;
2020/12/25 09:50:45;;;;;;;10.7;8.4;;;;;;;3.01;82.16113;98337.28;;;;
2020/12/25 10:00:44;;;;;;;20.1;12.3;;;;;;;3.14;82.91602;98349.27;;;;
2020/12/25 10:10:41;;;;;;;16.3;11.4;;;;;;;3.41;82.4375;98352.47;;;;
2020/12/25 10:20:40;;;;;;;19.1;12.2;;;;;;;3.71;82.08301;98365;;;;
2020/12/25 10:30:38;;;;;;;13;9.7;;;;;;;3.55;80.79004;98361.53;;;;
2020/12/25 10:40:36;;;;;;;11.4;8.9;;;;;;;3.46;80.31836;98355.16;;;;
2020/12/25 10:50:34;;;;;;;15.9;11.3;;;;;;;3.55;81.78711;98361.53;;;;
2020/12/25 11:00:32;;;;;;;16.7;14.4;;;;;;;3.71;82.22852;98373.8;;;;
2020/12/25 11:10:32;;;;;;;18.2;14.9;;;;;;;3.92;81.67969;98361.23;;;;
2020/12/25 11:20:28;;;;;;;22;15.5;;;;;;;3.92;81.34863;98364.68;;;;
2020/12/25 11:30:27;;;;;;;18.3;13.6;;;;;;;3.82;82.1377;98371.89;;;;
2020/12/25 11:40:28;;;;;;;17.8;14.4;;;;;;;3.64;81.91699;98373.27;;;;
2020/12/25 11:50:23;;;;;;;21.1;15.8;;;;;;;3.72;82.70801;98364.72;;;;
2020/12/25 12:00:21;;;;;;;26.8;21.7;;;;;;;3.84;81.89941;98370.58;;;;
2020/12/25 12:10:20;;;;;;;30.2;23.2;;;;;;;3.78;82.85156;98374.33;;;;
2020/12/25 12:20:18;;;;;;;23.2;20.5;;;;;;;3.87;82.6582;98386.03;;;;
2020/12/25 12:30:16;;;;;;;34.4;21.1;;;;;;;3.81;82.61328;98387.11;;;;
2020/12/25 12:40:14;;;;;;;27.1;21.3;;;;;;;3.81;82.26953;98392.44;;;;
2020/12/25 12:50:13;;;;;;;21.3;18.6;;;;;;;3.61;82.86328;98400.42;;;;
2020/12/25 13:00:10;;;;;;;29.1;21.9;;;;;;;3.68;82.64258;98392.19;;;;
2020/12/25 13:10:09;;;;;;;28.3;20.6;;;;;;;3.63;83.18652;98394.84;;;;
2020/12/25 13:20:07;;;;;;;25.1;19.5;;;;;;;3.59;82.99316;98410.56;;;;
2020/12/25 13:30:05;;;;;;;22.4;20;;;;;;;3.54;83.22656;98414.02;;;;
2020/12/25 13:40:03;;;;;;;21.6;17.5;;;;;;;3.61;83.30664;98429.73;;;;
2020/12/25 13:50:01;;;;;;;23.6;16.3;;;;;;;3.46;83.80859;98427.08;;;;
2020/12/25 13:59:59;;;;;;;15.6;13;;;;;;;3.01;83.88965;98439.25;;;;
2020/12/25 14:09:57;;;;;;;11.1;6;;;;;;;2.81;83.13965;98463.11;;;;
2020/12/25 14:19:57;;;;;;;5.3;3.6;;;;;;;2.88;82.25977;98468.99;;;;
2020/12/25 14:29:54;;;;;;;10.1;6.1;;;;;;;2.81;83.13965;98481.73;;;;
2020/12/25 14:39:52;;;;;;;13.6;7.4;;;;;;;2.82;82.81152;98496.66;;;;
2020/12/25 14:49:50;;;;;;;20.1;16.4;;;;;;;2.79;83.23633;98507.82;;;;
2020/12/25 14:59:48;;;;;;;12.7;8.3;;;;;;;2.62;83.0498;98525.82;;;;
2020/12/25 15:09:46;;;;;;;10.6;6.6;;;;;;;2.45;80.12988;98535.83;;;;
2020/12/25 15:19:44;;;;;;;13.3;7.8;;;;;;;2.37;79.28613;98544.27;;;;
2020/12/25 15:29:42;;;;;;;13.2;8.8;;;;;;;2.35;78.53027;98543.73;;;;
2020/12/25 15:39:41;;;;;;;10.9;7.1;;;;;;;2.28;78.39551;98561.77;;;;
2020/12/25 15:49:37;;;;;;;13.2;9.1;;;;;;;2.09;78.13867;98568.5;;;;
2020/12/25 15:59:35;;;;;;;10;7.6;;;;;;;2.07;77.08496;98565.3;;;;
2020/12/25 16:09:33;;;;;;;17;10.5;;;;;;;1.91;78.39453;98575.79;;;;
2020/12/25 16:19:33;;;;;;;14.3;9.7;;;;;;;1.67;79.71973;98582.45;;;;
2020/12/25 16:29:29;;;;;;;16.3;13.9;;;;;;;1.72;79.98438;98585.18;;;;
2020/12/25 16:39:27;;;;;;;17.5;13.2;;;;;;;1.66;79.56445;98583.53;;;;
2020/12/25 16:49:26;;;;;;;17.9;13.3;;;;;;;1.74;79.11328;98590.23;;;;
2020/12/25 16:59:23;;;;;;;25.5;16.5;;;;;;;1.78;78.95605;98623.22;;;;
2020/12/25 17:09:21;;;;;;;15.5;13.4;;;;;;;1.76;78.32324;98623.48;;;;
2020/12/25 17:19:19;;;;;;;17.9;11.8;;;;;;;1.83;77.69531;98625.94;;;;
2020/12/25 17:29:17;;;;;;;20;14;;;;;;;1.89;78.23633;98633.71;;;;
2020/12/25 17:39:15;;;;;;;26.8;19;;;;;;;1.95;78.08301;98656.63;;;;
2020/12/25 17:49:13;;;;;;;26.2;18.2;;;;;;;1.95;77.79492;98656.63;;;;
2020/12/25 17:59:10;;;;;;;20.8;17.4;;;;;;;1.89;77.79297;98651.51;;;;
2020/12/25 18:09:08;;;;;;;15.3;12.1;;;;;;;1.92;77.44434;98653.66;;;;
2020/12/25 18:19:06;;;;;;;16.2;12.2;;;;;;;1.98;77.10156;98655.31;;;;
2020/12/25 18:29:04;;;;;;;23.3;14.8;;;;;;;2.01;77.87109;98660.16;;;;
2020/12/25 18:39:02;;;;;;;23.8;20.4;;;;;;;2.02;78.67969;98667.86;;;;
2020/12/25 18:49:00;;;;;;;27.1;22.1;;;;;;;2.03;80.00781;98679.3;;;;
2020/12/25 18:58:58;;;;;;;26.3;21.8;;;;;;;2.01;80.3584;98697.37;;;;
2020/12/25 19:08:56;;;;;;;26.9;20.4;;;;;;;1.94;79.65918;98694.88;;;;
2020/12/25 19:18:54;;;;;;;32.4;20.4;;;;;;;2;78.98633;98707.19;;;;
2020/12/25 19:28:52;;;;;;;32.5;22.7;;;;;;;1.95;78.87793;98723.06;;;;
2020/12/25 19:38:50;;;;;;;27.9;19.1;;;;;;;1.65;79.05273;98719.23;;;;
2020/12/25 19:48:48;;;;;;;22;16.7;;;;;;;1.78;77.44238;98737.46;;;;
2020/12/25 19:58:46;;;;;;;20.8;12.9;;;;;;;1.66;75.79492;98739.45;;;;
2020/12/25 20:08:44;;;;;;;10.9;9.5;;;;;;;1.65;73.49316;98745.8;;;;
2020/12/25 20:18:43;;;;;;;14.4;9.5;;;;;;;1.53;73.33887;98739.81;;;;
2020/12/25 20:28:40;;;;;;;20;11.5;;;;;;;1.44;74.12109;98740.22;;;;
2020/12/25 20:38:37;;;;;;;9.4;6.6;;;;;;;1.4;74.11426;98743.59;;;;
2020/12/25 20:48:39;;;;;;;11.8;7.3;;;;;;;1.38;74.8418;98754.48;;;;
2020/12/25 20:58:33;;;;;;;15.2;9.5;;;;;;;1.38;74.53027;98774.91;;;;
2020/12/25 21:08:34;;;;;;;17.6;10.9;;;;;;;1.34;74.83398;98779.09;;;;
2020/12/25 21:18:29;;;;;;;19;11.8;;;;;;;1.33;74.21387;98799.53;;;;
2020/12/25 21:28:27;;;;;;;18.9;11.1;;;;;;;1.26;75.79199;98812.16;;;;
2020/12/25 21:38:25;;;;;;;15.3;11;;;;;;;1.24;76.69238;98816.11;;;;
2020/12/25 21:48:23;;;;;;;26.1;14.9;;;;;;;1.16;77.50586;98816.5;;;;
2020/12/25 21:58:20;;;;;;;14.7;11.5;;;;;;;1.2;77.64648;98817.63;;;;
2020/12/25 22:08:18;;;;;;;20.1;16.9;;;;;;;1.14;77.52637;98814.11;;;;
2020/12/25 22:18:16;;;;;;;18.6;15;;;;;;;1.07;78.56152;98818.77;;;;
2020/12/25 22:28:14;;;;;;;30.3;21.2;;;;;;;1.08;77.77832;98822.23;;;;
2020/12/25 22:38:12;;;;;;;36.1;18.1;;;;;;;1;77.9082;98813.62;;;;
2020/12/25 22:48:10;;;;;;;27.9;14.9;;;;;;;0.97;78.25488;98823.91;;;;
2020/12/25 22:58:08;;;;;;;24.4;18.5;;;;;;;0.96;78.51953;98823.09;;;;
2020/12/25 23:08:06;;;;;;;26.2;19.8;;;;;;;0.89;78.27441;98826.94;;;;
2020/12/25 23:18:03;;;;;;;19.7;10.6;;;;;;;0.86;75.94238;98838.84;;;;
2020/12/25 23:28:01;;;;;;;19.3;11.7;;;;;;;0.87;75.42578;98851.05;;;;
2020/12/25 23:37:59;;;;;;;18.3;14.2;;;;;;;0.84;75.17676;98851.52;;;;
2020/12/25 23:47:57;;;;;;;14.4;8.7;;;;;;;0.77;74.83301;98836.78;;;;
2020/12/25 23:57:55;;;;;;;14.9;7.6;;;;;;;0.7;73.87207;98838.78;;;;
